sensor_id;sensor_type;location;lat;lon;timestamp;pressure;altitude;pressure_sealevel;temperature;humidity
77041;BME280;65974;42.664;23.264;2024-02-14T00:01:39;94096.06;;;5.06;83.42
77041;BME280;65974;42.664;23.264;2024-02-14T00:04:05;94098.97;;;5.01;83.75
77041;BME280;65974;42.664;23.264;2024-02-14T00:06:35;94104.34;;;5.04;84.13
77041;BME280;65974;42.664;23.264;2024-02-14T00:09:01;94101.63;;;5.01;83.67
77041;BME280;65974;42.664;23.264;2024-02-14T00:11:27;94112.94;;;5.01;83.80
77041;BME280;65974;42.664;23.264;2024-02-14T00:13:52;94114.47;;;5.02;83.67
77041;BME280;65974;42.664;23.264;2024-02-14T00:16:18;94106.97;;;5.04;84.39
77041;BME280;65974;42.664;23.264;2024-02-14T00:18:44;94114.91;;;5.04;83.60
77041;BME280;65974;42.664;23.264;2024-02-14T00:21:10;94119.03;;;5.05;84.09
77041;BME280;65974;42.664;23.264;2024-02-14T00:23:35;94125.88;;;5.06;83.67
77041;BME280;65974;42.664;23.264;2024-02-14T00:26:02;94120.44;;;4.99;84.47
77041;BME280;65974;42.664;23.264;2024-02-14T00:28:27;94121.63;;;5.02;84.14
77041;BME280;65974;42.664;23.264;2024-02-14T00:30:54;94125.44;;;5.04;84.35
77041;BME280;65974;42.664;23.264;2024-02-14T00:33:20;94129.13;;;5.00;83.86
77041;BME280;65974;42.664;23.264;2024-02-14T00:35:47;94129.53;;;5.02;83.71
77041;BME280;65974;42.664;23.264;2024-02-14T00:38:12;94134.47;;;5.03;84.29
77041;BME280;65974;42.664;23.264;2024-02-14T00:40:39;94123.44;;;4.98;84.08
77041;BME280;65974;42.664;23.264;2024-02-14T00:43:05;94124.63;;;5.00;84.28
77041;BME280;65974;42.664;23.264;2024-02-14T00:45:30;94128.09;;;5.04;83.90
77041;BME280;65974;42.664;23.264;2024-02-14T00:47:56;94129.91;;;5.00;84.34
77041;BME280;65974;42.664;23.264;2024-02-14T00:50:21;94138.97;;;5.03;84.16
77041;BME280;65974;42.664;23.264;2024-02-14T00:52:47;94130.59;;;4.97;84.51
77041;BME280;65974;42.664;23.264;2024-02-14T00:55:13;94132.19;;;5.02;84.33
77041;BME280;65974;42.664;23.264;2024-02-14T00:57:38;94126.84;;;4.98;83.85
77041;BME280;65974;42.664;23.264;2024-02-14T01:00:04;94133.28;;;5.01;84.00
77041;BME280;65974;42.664;23.264;2024-02-14T01:02:31;94124.69;;;5.04;83.81
77041;BME280;65974;42.664;23.264;2024-02-14T01:04:57;94134.88;;;5.05;83.87
77041;BME280;65974;42.664;23.264;2024-02-14T01:07:22;94131.81;;;5.03;83.68
77041;BME280;65974;42.664;23.264;2024-02-14T01:09:48;94128.78;;;5.01;83.80
77041;BME280;65974;42.664;23.264;2024-02-14T01:12:15;94129.13;;;5.00;83.58
77041;BME280;65974;42.664;23.264;2024-02-14T01:14:40;94138.22;;;5.02;83.83
77041;BME280;65974;42.664;23.264;2024-02-14T01:17:07;94134.06;;;5.01;83.48
77041;BME280;65974;42.664;23.264;2024-02-14T01:19:33;94142.81;;;5.05;83.12
77041;BME280;65974;42.664;23.264;2024-02-14T01:21:59;94141.28;;;5.04;83.60
77041;BME280;65974;42.664;23.264;2024-02-14T01:24:26;94136.75;;;5.05;83.72
77041;BME280;65974;42.664;23.264;2024-02-14T01:26:53;94131.81;;;5.03;83.31
77041;BME280;65974;42.664;23.264;2024-02-14T01:29:20;94135.28;;;5.07;83.39
77041;BME280;65974;42.664;23.264;2024-02-14T01:31:47;94129.97;;;5.04;83.30
77041;BME280;65974;42.664;23.264;2024-02-14T01:34:14;94129.91;;;5.00;83.02
77041;BME280;65974;42.664;23.264;2024-02-14T01:36:40;94123.50;;;5.01;83.31
77041;BME280;65974;42.664;23.264;2024-02-14T01:39:07;94121.91;;;4.97;83.46
77041;BME280;65974;42.664;23.264;2024-02-14T01:41:37;94130.59;;;4.97;83.40
77041;BME280;65974;42.664;23.264;2024-02-14T01:44:03;94133.66;;;4.99;83.33
77041;BME280;65974;42.664;23.264;2024-02-14T01:46:29;94132.47;;;4.97;83.36
77041;BME280;65974;42.664;23.264;2024-02-14T01:48:55;94135.88;;;4.97;82.90
77041;BME280;65974;42.664;23.264;2024-02-14T01:51:23;94135.94;;;5.01;83.15
77041;BME280;65974;42.664;23.264;2024-02-14T01:53:50;94139.59;;;4.96;82.88
77041;BME280;65974;42.664;23.264;2024-02-14T01:56:18;94137.41;;;4.98;83.59
77041;BME280;65974;42.664;23.264;2024-02-14T01:58:44;94130.22;;;4.99;83.74
77041;BME280;65974;42.664;23.264;2024-02-14T02:03:45;94134.31;;;4.96;83.62
77041;BME280;65974;42.664;23.264;2024-02-14T02:06:11;94138.50;;;4.97;83.77
77041;BME280;65974;42.664;23.264;2024-02-14T02:08:36;94133.59;;;4.96;83.13
77041;BME280;65974;42.664;23.264;2024-02-14T02:11:02;94141.50;;;4.96;83.71
77041;BME280;65974;42.664;23.264;2024-02-14T02:13:28;94140.38;;;4.97;83.17
77041;BME280;65974;42.664;23.264;2024-02-14T02:15:53;94143.38;;;4.95;82.47
77041;BME280;65974;42.664;23.264;2024-02-14T02:18:19;94143.44;;;4.99;83.42
77041;BME280;65974;42.664;23.264;2024-02-14T02:20:47;94142.59;;;4.95;82.46
77041;BME280;65974;42.664;23.264;2024-02-14T02:23:12;94138.09;;;4.95;82.00
77041;BME280;65974;42.664;23.264;2024-02-14T02:25:43;94139.19;;;4.94;82.47
77041;BME280;65974;42.664;23.264;2024-02-14T02:28:09;94140.06;;;4.98;82.12
77041;BME280;65974;42.664;23.264;2024-02-14T02:30:37;94138.09;;;4.95;82.17
77041;BME280;65974;42.664;23.264;2024-02-14T02:33:04;94143.72;;;4.94;82.72
77041;BME280;65974;42.664;23.264;2024-02-14T02:35:30;94143.31;;;4.92;81.83
77041;BME280;65974;42.664;23.264;2024-02-14T02:37:55;94142.59;;;4.95;82.55
77041;BME280;65974;42.664;23.264;2024-02-14T02:40:22;94150.81;;;4.90;81.91
77041;BME280;65974;42.664;23.264;2024-02-14T02:42:48;94150.47;;;4.91;82.16
77041;BME280;65974;42.664;23.264;2024-02-14T02:45:15;94155.38;;;4.93;81.98
77041;BME280;65974;42.664;23.264;2024-02-14T02:47:42;94155.38;;;4.93;81.42
77041;BME280;65974;42.664;23.264;2024-02-14T02:50:08;94159.47;;;4.90;81.45
77041;BME280;65974;42.664;23.264;2024-02-14T02:52:34;94164.41;;;4.92;81.28
77041;BME280;65974;42.664;23.264;2024-02-14T02:55:00;94167.38;;;4.90;81.25
77041;BME280;65974;42.664;23.264;2024-02-14T02:57:30;94169.69;;;4.92;81.29
77041;BME280;65974;42.664;23.264;2024-02-14T02:59:58;94167.81;;;4.92;81.28
77041;BME280;65974;42.664;23.264;2024-02-14T03:02:23;94177.25;;;4.93;81.15
77041;BME280;65974;42.664;23.264;2024-02-14T03:04:51;94174.63;;;4.93;81.24
77041;BME280;65974;42.664;23.264;2024-02-14T03:07:18;94166.66;;;4.90;80.43
77041;BME280;65974;42.664;23.264;2024-02-14T03:09:44;94168.94;;;4.91;80.27
77041;BME280;65974;42.664;23.264;2024-02-14T03:12:10;94174.22;;;4.91;80.42
77041;BME280;65974;42.664;23.264;2024-02-14T03:14:36;94176.91;;;4.95;80.47
77041;BME280;65974;42.664;23.264;2024-02-14T03:17:02;94189.25;;;4.91;80.11
77041;BME280;65974;42.664;23.264;2024-02-14T03:19:29;94191.22;;;4.94;80.24
77041;BME280;65974;42.664;23.264;2024-02-14T03:21:55;94185.94;;;4.94;79.86
77041;BME280;65974;42.664;23.264;2024-02-14T03:24:21;94196.50;;;4.94;80.17
77041;BME280;65974;42.664;23.264;2024-02-14T03:26:48;94195.31;;;4.91;79.82
77041;BME280;65974;42.664;23.264;2024-02-14T03:29:16;94199.41;;;4.89;80.28
77041;BME280;65974;42.664;23.264;2024-02-14T03:31:42;94205.88;;;4.91;80.23
77041;BME280;65974;42.664;23.264;2024-02-14T03:34:09;94209.28;;;4.92;80.10
77041;BME280;65974;42.664;23.264;2024-02-14T03:36:38;94212.34;;;4.94;79.79
77041;BME280;65974;42.664;23.264;2024-02-14T03:39:05;94210.03;;;4.92;79.56
77041;BME280;65974;42.664;23.264;2024-02-14T03:41:32;94220.16;;;4.90;80.06
77041;BME280;65974;42.664;23.264;2024-02-14T03:43:57;94217.59;;;4.94;79.36
77041;BME280;65974;42.664;23.264;2024-02-14T03:46:28;94225.84;;;4.92;79.54
77041;BME280;65974;42.664;23.264;2024-02-14T03:48:55;94222.88;;;4.94;79.49
77041;BME280;65974;42.664;23.264;2024-02-14T03:51:23;94226.97;;;4.91;78.72
77041;BME280;65974;42.664;23.264;2024-02-14T03:53:49;94223.16;;;4.89;78.69
77041;BME280;65974;42.664;23.264;2024-02-14T03:56:15;94228.44;;;4.89;79.14
77041;BME280;65974;42.664;23.264;2024-02-14T03:58:41;94237.53;;;4.91;79.31
77041;BME280;65974;42.664;23.264;2024-02-14T04:01:08;94226.19;;;4.91;79.28
77041;BME280;65974;42.664;23.264;2024-02-14T04:03:34;94223.81;;;4.86;79.38
77041;BME280;65974;42.664;23.264;2024-02-14T04:05:59;94228.78;;;4.87;79.43
77041;BME280;65974;42.664;23.264;2024-02-14T04:08:26;94241.56;;;4.85;79.24
77041;BME280;65974;42.664;23.264;2024-02-14T04:10:51;94229.47;;;4.84;78.65
77041;BME280;65974;42.664;23.264;2024-02-14T04:13:19;94243.78;;;4.83;79.32
77041;BME280;65974;42.664;23.264;2024-02-14T04:15:44;94234.56;;;4.77;78.85
77041;BME280;65974;42.664;23.264;2024-02-14T04:18:11;94242.16;;;4.79;79.33
77041;BME280;65974;42.664;23.264;2024-02-14T04:20:37;94242.16;;;4.79;78.93
77041;BME280;65974;42.664;23.264;2024-02-14T04:23:04;94244.38;;;4.77;79.24
77041;BME280;65974;42.664;23.264;2024-02-14T04:25:32;94240.97;;;4.76;79.88
77041;BME280;65974;42.664;23.264;2024-02-14T04:27:59;94254.94;;;4.77;79.31
77041;BME280;65974;42.664;23.264;2024-02-14T04:30:25;94254.94;;;4.77;79.59
77041;BME280;65974;42.664;23.264;2024-02-14T04:32:51;94255.25;;;4.75;79.22
77041;BME280;65974;42.664;23.264;2024-02-14T04:35:20;94259.03;;;4.74;79.93
77041;BME280;65974;42.664;23.264;2024-02-14T04:37:46;94260.53;;;4.75;79.26
77041;BME280;65974;42.664;23.264;2024-02-14T04:40:13;94256.03;;;4.76;79.68
77041;BME280;65974;42.664;23.264;2024-02-14T04:42:40;94266.59;;;4.76;79.92
77041;BME280;65974;42.664;23.264;2024-02-14T04:45:06;94267.34;;;4.76;79.69
77041;BME280;65974;42.664;23.264;2024-02-14T04:47:32;94266.53;;;4.72;80.17
77041;BME280;65974;42.664;23.264;2024-02-14T04:49:57;94267.72;;;4.75;80.19
77041;BME280;65974;42.664;23.264;2024-02-14T04:52:24;94271.03;;;4.71;79.69
77041;BME280;65974;42.664;23.264;2024-02-14T04:54:50;94280.13;;;4.74;80.33
77041;BME280;65974;42.664;23.264;2024-02-14T04:57:16;94272.16;;;4.70;79.87
77041;BME280;65974;42.664;23.264;2024-02-14T04:59:44;94275.53;;;4.71;79.60
77041;BME280;65974;42.664;23.264;2024-02-14T05:02:11;94277.75;;;4.69;79.72
77041;BME280;65974;42.664;23.264;2024-02-14T05:04:36;94279.34;;;4.73;79.44
77041;BME280;65974;42.664;23.264;2024-02-14T05:07:04;94273.25;;;4.69;79.76
77041;BME280;65974;42.664;23.264;2024-02-14T05:09:31;94285.25;;;4.67;79.61
77041;BME280;65974;42.664;23.264;2024-02-14T05:11:56;94280.31;;;4.65;79.63
77041;BME280;65974;42.664;23.264;2024-02-14T05:14:22;94290.16;;;4.68;79.60
77041;BME280;65974;42.664;23.264;2024-02-14T05:16:54;94290.78;;;4.62;79.62
77041;BME280;65974;42.664;23.264;2024-02-14T05:19:21;94296.75;;;4.59;79.64
77041;BME280;65974;42.664;23.264;2024-02-14T05:21:47;94300.88;;;4.60;79.79
77041;BME280;65974;42.664;23.264;2024-02-14T05:24:13;94305.31;;;4.56;80.03
77041;BME280;65974;42.664;23.264;2024-02-14T05:26:38;94307.28;;;4.59;80.14
77041;BME280;65974;42.664;23.264;2024-02-14T05:29:04;94312.63;;;4.62;79.83
77041;BME280;65974;42.664;23.264;2024-02-14T05:31:43;94320.91;;;4.61;79.50
77041;BME280;65974;42.664;23.264;2024-02-14T05:34:09;94319.34;;;4.60;79.70
77041;BME280;65974;42.664;23.264;2024-02-14T05:36:35;94325.09;;;4.62;79.27
77041;BME280;65974;42.664;23.264;2024-02-14T05:39:01;94327.38;;;4.63;79.23
77041;BME280;65974;42.664;23.264;2024-02-14T05:41:27;94331.44;;;4.61;79.06
77041;BME280;65974;42.664;23.264;2024-02-14T05:43:53;94338.88;;;4.55;79.33
77041;BME280;65974;42.664;23.264;2024-02-14T05:46:18;94343.44;;;4.58;79.01
77041;BME280;65974;42.664;23.264;2024-02-14T05:48:46;94340.81;;;4.58;79.34
77041;BME280;65974;42.664;23.264;2024-02-14T05:51:12;94348.81;;;4.62;79.62
77041;BME280;65974;42.664;23.264;2024-02-14T05:53:37;94349.25;;;4.64;79.01
77041;BME280;65974;42.664;23.264;2024-02-14T05:56:03;94352.47;;;4.57;78.70
77041;BME280;65974;42.664;23.264;2024-02-14T05:58:28;94351.34;;;4.58;79.15
77041;BME280;65974;42.664;23.264;2024-02-14T06:00:54;94361.13;;;4.58;78.95
77041;BME280;65974;42.664;23.264;2024-02-14T06:03:21;94358.84;;;4.56;78.80
77041;BME280;65974;42.664;23.264;2024-02-14T06:05:46;94361.06;;;4.54;78.34
77041;BME280;65974;42.664;23.264;2024-02-14T06:08:12;94369.03;;;4.58;78.22
77041;BME280;65974;42.664;23.264;2024-02-14T06:10:37;94373.88;;;4.56;77.97
77041;BME280;65974;42.664;23.264;2024-02-14T06:13:04;94375.09;;;4.58;78.37
77041;BME280;65974;42.664;23.264;2024-02-14T06:15:30;94377.22;;;4.53;78.24
77041;BME280;65974;42.664;23.264;2024-02-14T06:17:56;94374.94;;;4.51;77.39
77041;BME280;65974;42.664;23.264;2024-02-14T06:20:23;94379.94;;;4.56;77.65
77041;BME280;65974;42.664;23.264;2024-02-14T06:22:48;94386.75;;;4.57;77.95
77041;BME280;65974;42.664;23.264;2024-02-14T06:25:14;94391.44;;;4.64;77.56
77041;BME280;65974;42.664;23.264;2024-02-14T06:27:39;94389.72;;;4.56;77.61
77041;BME280;65974;42.664;23.264;2024-02-14T06:30:05;94393.81;;;4.53;77.19
77041;BME280;65974;42.664;23.264;2024-02-14T06:32:31;94402.91;;;4.56;77.99
77041;BME280;65974;42.664;23.264;2024-02-14T06:34:56;94407.75;;;4.54;77.37
77041;BME280;65974;42.664;23.264;2024-02-14T06:37:23;94399.69;;;4.47;76.85
77041;BME280;65974;42.664;23.264;2024-02-14T06:39:49;94407.31;;;4.52;77.14
77041;BME280;65974;42.664;23.264;2024-02-14T06:42:16;94406.13;;;4.49;77.09
77041;BME280;65974;42.664;23.264;2024-02-14T06:44:41;94403.84;;;4.48;76.99
77041;BME280;65974;42.664;23.264;2024-02-14T06:47:07;94403.16;;;4.51;76.89
77041;BME280;65974;42.664;23.264;2024-02-14T06:49:34;94408.03;;;4.49;76.59
77041;BME280;65974;42.664;23.264;2024-02-14T06:51:59;94411.16;;;4.54;76.50
77041;BME280;65974;42.664;23.264;2024-02-14T06:54:25;94408.75;;;4.49;76.24
77041;BME280;65974;42.664;23.264;2024-02-14T06:56:52;94424.00;;;4.56;76.10
77041;BME280;65974;42.664;23.264;2024-02-14T06:59:18;94406.56;;;4.51;76.26
77041;BME280;65974;42.664;23.264;2024-02-14T07:01:43;94413.13;;;4.57;76.33
77041;BME280;65974;42.664;23.264;2024-02-14T07:04:09;94427.31;;;4.53;75.73
77041;BME280;65974;42.664;23.264;2024-02-14T07:06:34;94425.19;;;4.58;75.56
77041;BME280;65974;42.664;23.264;2024-02-14T07:09:00;94429.63;;;4.54;75.49
77041;BME280;65974;42.664;23.264;2024-02-14T07:11:25;94426.97;;;4.54;74.85
77041;BME280;65974;42.664;23.264;2024-02-14T07:13:51;94441.72;;;4.55;75.54
77041;BME280;65974;42.664;23.264;2024-02-14T07:16:16;94443.56;;;4.55;75.22
77041;BME280;65974;42.664;23.264;2024-02-14T07:18:43;94442.38;;;4.52;74.66
77041;BME280;65974;42.664;23.264;2024-02-14T07:21:10;94451.63;;;4.46;75.28
77041;BME280;65974;42.664;23.264;2024-02-14T07:23:35;94448.50;;;4.56;75.26
77041;BME280;65974;42.664;23.264;2024-02-14T07:26:01;94451.91;;;4.57;75.21
77041;BME280;65974;42.664;23.264;2024-02-14T07:28:29;94457.97;;;4.57;75.49
77041;BME280;65974;42.664;23.264;2024-02-14T07:30:54;94439.81;;;4.40;74.73
77041;BME280;65974;42.664;23.264;2024-02-14T07:33:20;94465.75;;;4.54;75.16
77041;BME280;65974;42.664;23.264;2024-02-14T07:35:46;94452.84;;;4.49;74.40
77041;BME280;65974;42.664;23.264;2024-02-14T07:38:13;94455.13;;;4.50;74.61
77041;BME280;65974;42.664;23.264;2024-02-14T07:40:38;94459.63;;;4.50;74.80
77041;BME280;65974;42.664;23.264;2024-02-14T07:43:04;94454.13;;;4.55;75.17
77041;BME280;65974;42.664;23.264;2024-02-14T07:45:31;94460.84;;;4.52;74.92
77041;BME280;65974;42.664;23.264;2024-02-14T07:47:57;94461.75;;;4.44;74.23
77041;BME280;65974;42.664;23.264;2024-02-14T07:50:22;94457.69;;;4.47;74.38
77041;BME280;65974;42.664;23.264;2024-02-14T07:52:48;94465.06;;;4.41;74.78
77041;BME280;65974;42.664;23.264;2024-02-14T07:55:13;94466.34;;;4.47;75.19
77041;BME280;65974;42.664;23.264;2024-02-14T07:57:40;94470.59;;;4.36;75.32
77041;BME280;65974;42.664;23.264;2024-02-14T08:00:06;94473.31;;;4.40;76.04
77041;BME280;65974;42.664;23.264;2024-02-14T08:02:35;94482.94;;;4.48;76.21
77041;BME280;65974;42.664;23.264;2024-02-14T08:05:02;94472.97;;;4.41;76.19
77041;BME280;65974;42.664;23.264;2024-02-14T08:07:31;94478.06;;;4.34;76.27
77041;BME280;65974;42.664;23.264;2024-02-14T08:09:56;94482.56;;;4.34;77.20
77041;BME280;65974;42.664;23.264;2024-02-14T08:12:22;94477.72;;;4.36;77.29
77041;BME280;65974;42.664;23.264;2024-02-14T08:14:50;94482.66;;;4.37;77.42
77041;BME280;65974;42.664;23.264;2024-02-14T08:17:16;94470.75;;;4.28;76.12
77041;BME280;65974;42.664;23.264;2024-02-14T08:19:42;94479.94;;;4.34;76.39
77041;BME280;65974;42.664;23.264;2024-02-14T08:22:07;94486.41;;;4.36;76.32
77041;BME280;65974;42.664;23.264;2024-02-14T08:24:33;94490.47;;;4.34;75.91
77041;BME280;65974;42.664;23.264;2024-02-14T08:26:58;94499.91;;;4.35;75.46
77041;BME280;65974;42.664;23.264;2024-02-14T08:29:25;94495.94;;;4.41;76.21
77041;BME280;65974;42.664;23.264;2024-02-14T08:31:51;94497.03;;;4.40;75.80
77041;BME280;65974;42.664;23.264;2024-02-14T08:34:16;94498.13;;;4.39;75.51
77041;BME280;65974;42.664;23.264;2024-02-14T08:36:42;94510.03;;;4.33;75.30
77041;BME280;65974;42.664;23.264;2024-02-14T08:39:09;94500.78;;;4.39;75.87
77041;BME280;65974;42.664;23.264;2024-02-14T08:41:36;94510.81;;;4.33;74.81
77041;BME280;65974;42.664;23.264;2024-02-14T08:44:01;94508.41;;;4.28;75.53
77041;BME280;65974;42.664;23.264;2024-02-14T08:46:27;94516.72;;;4.30;75.82
77041;BME280;65974;42.664;23.264;2024-02-14T08:48:53;94519.63;;;4.25;75.71
77041;BME280;65974;42.664;23.264;2024-02-14T08:51:19;94521.28;;;4.18;74.78
77041;BME280;65974;42.664;23.264;2024-02-14T08:53:46;94523.91;;;4.18;75.58
77041;BME280;65974;42.664;23.264;2024-02-14T08:56:11;94522.13;;;4.22;75.34
77041;BME280;65974;42.664;23.264;2024-02-14T08:58:37;94527.09;;;4.23;75.21
77041;BME280;65974;42.664;23.264;2024-02-14T09:01:03;94527.28;;;4.30;75.61
77041;BME280;65974;42.664;23.264;2024-02-14T09:03:29;94530.03;;;4.34;75.40
77041;BME280;65974;42.664;23.264;2024-02-14T09:05:57;94520.91;;;4.31;74.97
77041;BME280;65974;42.664;23.264;2024-02-14T09:08:22;94531.53;;;4.35;76.51
77041;BME280;65974;42.664;23.264;2024-02-14T09:10:52;94536.66;;;4.28;75.40
77041;BME280;65974;42.664;23.264;2024-02-14T09:13:17;94535.13;;;4.15;76.83
77041;BME280;65974;42.664;23.264;2024-02-14T09:15:43;94539.53;;;4.11;77.76
77041;BME280;65974;42.664;23.264;2024-02-14T09:18:09;94546.91;;;4.05;78.54
77041;BME280;65974;42.664;23.264;2024-02-14T09:20:35;94542.06;;;4.07;79.30
77041;BME280;65974;42.664;23.264;2024-02-14T09:23:03;94548.31;;;4.03;79.46
77041;BME280;65974;42.664;23.264;2024-02-14T09:25:31;94551.66;;;4.00;79.94
77041;BME280;65974;42.664;23.264;2024-02-14T09:27:57;94551.31;;;4.01;81.09
77041;BME280;65974;42.664;23.264;2024-02-14T09:30:22;94559.88;;;3.98;81.84
77041;BME280;65974;42.664;23.264;2024-02-14T09:32:48;94557.78;;;4.04;81.66
77041;BME280;65974;42.664;23.264;2024-02-14T09:35:13;94551.22;;;3.98;79.43
77041;BME280;65974;42.664;23.264;2024-02-14T09:37:40;94556.03;;;3.96;82.00
77041;BME280;65974;42.664;23.264;2024-02-14T09:40:06;94556.59;;;3.89;83.06
77041;BME280;65974;42.664;23.264;2024-02-14T09:42:45;94561.09;;;3.88;83.53
77041;BME280;65974;42.664;23.264;2024-02-14T09:45:16;94552.97;;;3.81;83.31
77041;BME280;65974;42.664;23.264;2024-02-14T09:47:42;94556.47;;;3.85;82.88
77041;BME280;65974;42.664;23.264;2024-02-14T09:50:10;94551.22;;;3.85;83.27
77041;BME280;65974;42.664;23.264;2024-02-14T09:52:38;94552.84;;;3.90;83.12
77041;BME280;65974;42.664;23.264;2024-02-14T09:55:05;94548.34;;;3.90;82.33
77041;BME280;65974;42.664;23.264;2024-02-14T09:57:32;94546.03;;;4.01;78.37
77041;BME280;65974;42.664;23.264;2024-02-14T10:00:00;94536.91;;;4.11;77.29
77041;BME280;65974;42.664;23.264;2024-02-14T10:02:28;94542.28;;;4.14;76.91
77041;BME280;65974;42.664;23.264;2024-02-14T10:04:55;94531.06;;;4.17;75.72
77041;BME280;65974;42.664;23.264;2024-02-14T10:07:21;94538.41;;;4.24;75.98
77041;BME280;65974;42.664;23.264;2024-02-14T10:09:46;94526.09;;;4.28;76.57
77041;BME280;65974;42.664;23.264;2024-02-14T10:12:12;94534.22;;;4.23;75.51
77041;BME280;65974;42.664;23.264;2024-02-14T10:14:38;94535.66;;;4.20;75.80
77041;BME280;65974;42.664;23.264;2024-02-14T10:17:04;94539.50;;;4.23;74.59
77041;BME280;65974;42.664;23.264;2024-02-14T10:19:35;94533.03;;;4.20;74.79
77041;BME280;65974;42.664;23.264;2024-02-14T10:22:09;94542.78;;;4.20;75.03
77041;BME280;65974;42.664;23.264;2024-02-14T10:24:35;94535.31;;;4.22;74.75
77041;BME280;65974;42.664;23.264;2024-02-14T10:27:00;94538.59;;;4.31;74.61
77041;BME280;65974;42.664;23.264;2024-02-14T10:29:27;94542.09;;;4.35;74.55
77041;BME280;65974;42.664;23.264;2024-02-14T10:31:52;94534.53;;;4.33;74.29
77041;BME280;65974;42.664;23.264;2024-02-14T10:34:24;94531.69;;;4.26;74.01
77041;BME280;65974;42.664;23.264;2024-02-14T10:36:52;94526.84;;;4.28;73.72
77041;BME280;65974;42.664;23.264;2024-02-14T10:39:20;94529.25;;;4.33;74.30
77041;BME280;65974;42.664;23.264;2024-02-14T10:41:46;94540.47;;;4.30;73.78
77041;BME280;65974;42.664;23.264;2024-02-14T10:44:12;94538.16;;;4.29;74.18
77041;BME280;65974;42.664;23.264;2024-02-14T10:46:41;94526.75;;;4.25;74.40
77041;BME280;65974;42.664;23.264;2024-02-14T10:49:10;94531.38;;;4.28;73.84
77041;BME280;65974;42.664;23.264;2024-02-14T10:51:38;94539.28;;;4.28;74.11
77041;BME280;65974;42.664;23.264;2024-02-14T10:54:11;94529.16;;;4.30;74.48
77041;BME280;65974;42.664;23.264;2024-02-14T10:56:41;94528.06;;;4.31;73.74
77041;BME280;65974;42.664;23.264;2024-02-14T10:59:12;94533.19;;;4.39;74.88
77041;BME280;65974;42.664;23.264;2024-02-14T11:01:41;94536.69;;;4.43;74.26
77041;BME280;65974;42.664;23.264;2024-02-14T11:04:07;94537.69;;;4.39;73.21
77041;BME280;65974;42.664;23.264;2024-02-14T11:06:46;94537.09;;;4.45;73.57
77041;BME280;65974;42.664;23.264;2024-02-14T11:09:12;94538.66;;;4.46;72.35
77041;BME280;65974;42.664;23.264;2024-02-14T11:11:45;94538.09;;;4.53;72.92
77041;BME280;65974;42.664;23.264;2024-02-14T11:14:20;94541.06;;;4.51;72.77
77041;BME280;65974;42.664;23.264;2024-02-14T11:16:47;94535.88;;;4.55;73.29
77041;BME280;65974;42.664;23.264;2024-02-14T11:19:13;94540.72;;;4.53;73.55
77041;BME280;65974;42.664;23.264;2024-02-14T11:21:44;94541.16;;;4.55;74.01
77041;BME280;65974;42.664;23.264;2024-02-14T11:24:12;94537.31;;;4.52;74.22
77041;BME280;65974;42.664;23.264;2024-02-14T11:26:46;94536.78;;;4.47;74.59
77041;BME280;65974;42.664;23.264;2024-02-14T11:29:16;94534.63;;;4.37;75.15
77041;BME280;65974;42.664;23.264;2024-02-14T11:31:42;94541.34;;;4.34;76.42
77041;BME280;65974;42.664;23.264;2024-02-14T11:34:08;94541.66;;;4.33;76.52
77041;BME280;65974;42.664;23.264;2024-02-14T11:36:36;94539.03;;;4.33;76.85
77041;BME280;65974;42.664;23.264;2024-02-14T11:39:05;94537.69;;;4.39;76.63
77041;BME280;65974;42.664;23.264;2024-02-14T11:41:33;94535.97;;;4.31;76.51
77041;BME280;65974;42.664;23.264;2024-02-14T11:44:04;94534.88;;;4.32;77.54
77041;BME280;65974;42.664;23.264;2024-02-14T11:46:35;94532.22;;;4.32;77.38
77041;BME280;65974;42.664;23.264;2024-02-14T11:49:03;94532.47;;;4.27;77.56
77041;BME280;65974;42.664;23.264;2024-02-14T11:51:30;94538.16;;;4.29;77.68
77041;BME280;65974;42.664;23.264;2024-02-14T11:53:59;94539.94;;;4.25;78.60
77041;BME280;65974;42.664;23.264;2024-02-14T11:56:33;94534.31;;;4.26;78.16
77041;BME280;65974;42.664;23.264;2024-02-14T11:59:05;94545.28;;;4.28;78.26
77041;BME280;65974;42.664;23.264;2024-02-14T12:01:39;94542.00;;;4.31;77.80
77041;BME280;65974;42.664;23.264;2024-02-14T12:04:05;94543.63;;;4.36;78.02
77041;BME280;65974;42.664;23.264;2024-02-14T12:06:34;94538.81;;;4.38;76.59
77041;BME280;65974;42.664;23.264;2024-02-14T12:09:03;94539.88;;;4.37;76.84
77041;BME280;65974;42.664;23.264;2024-02-14T12:11:37;94531.75;;;4.42;77.70
77041;BME280;65974;42.664;23.264;2024-02-14T12:14:06;94537.88;;;4.46;75.79
77041;BME280;65974;42.664;23.264;2024-02-14T12:16:34;94532.59;;;4.46;75.28
77041;BME280;65974;42.664;23.264;2024-02-14T12:19:17;94533.47;;;4.50;75.04
77041;BME280;65974;42.664;23.264;2024-02-14T12:21:46;94524.47;;;4.51;74.44
77041;BME280;65974;42.664;23.264;2024-02-14T12:24:14;94529.91;;;4.58;74.92
77041;BME280;65974;42.664;23.264;2024-02-14T12:26:40;94522.78;;;4.58;74.45
77041;BME280;65974;42.664;23.264;2024-02-14T12:29:11;94520.41;;;4.53;74.34
77041;BME280;65974;42.664;23.264;2024-02-14T12:31:38;94518.63;;;4.57;74.03
77041;BME280;65974;42.664;23.264;2024-02-14T12:34:04;94518.63;;;4.57;74.56
77041;BME280;65974;42.664;23.264;2024-02-14T12:36:32;94520.25;;;4.62;74.59
77041;BME280;65974;42.664;23.264;2024-02-14T12:38:59;94515.41;;;4.64;74.94
77041;BME280;65974;42.664;23.264;2024-02-14T12:41:28;94517.94;;;4.60;74.00
77041;BME280;65974;42.664;23.264;2024-02-14T12:43:55;94521.75;;;4.63;74.87
77041;BME280;65974;42.664;23.264;2024-02-14T12:46:21;94511.22;;;4.63;72.71
77041;BME280;65974;42.664;23.264;2024-02-14T12:48:48;94513.28;;;4.69;72.65
77041;BME280;65974;42.664;23.264;2024-02-14T12:51:14;94516.75;;;4.73;73.27
77041;BME280;65974;42.664;23.264;2024-02-14T12:53:40;94520.84;;;4.71;73.18
77041;BME280;65974;42.664;23.264;2024-02-14T12:56:06;94520.25;;;4.78;72.98
77041;BME280;65974;42.664;23.264;2024-02-14T12:58:33;94521.03;;;4.78;72.62
77041;BME280;65974;42.664;23.264;2024-02-14T13:00:59;94526.16;;;4.87;71.89